createdAt,value
2022-08-20T00:02:33.632Z,22.60
2022-08-20T00:07:33.584Z,22.69
2022-08-20T00:12:33.505Z,22.67
2022-08-20T00:17:33.433Z,22.60
2022-08-20T00:22:33.365Z,22.65
2022-08-20T00:27:33.306Z,22.72
2022-08-20T00:32:33.417Z,22.41
2022-08-20T00:37:33.176Z,22.69
2022-08-20T00:42:33.108Z,22.41
2022-08-20T00:47:33.052Z,22.49
2022-08-20T00:52:32.969Z,22.29
2022-08-20T00:57:58.842Z,22.54
2022-08-20T01:02:33.857Z,22.77
2022-08-20T01:07:32.780Z,22.69
2022-08-20T01:12:32.725Z,22.17
2022-08-20T01:17:32.653Z,22.64
2022-08-20T01:22:32.593Z,22.57
2022-08-20T01:27:32.510Z,22.35
2022-08-20T01:32:32.451Z,22.35
2022-08-20T01:37:32.562Z,22.68
2022-08-20T01:42:32.342Z,22.38
2022-08-20T01:47:37.290Z,22.13
2022-08-20T01:52:33.205Z,21.90
2022-08-20T01:57:32.114Z,21.63
2022-08-20T02:02:32.047Z,22.34
2022-08-20T02:07:31.978Z,22.44
2022-08-20T02:12:31.916Z,22.16
2022-08-20T02:17:31.839Z,22.28
2022-08-20T02:22:31.792Z,21.82
2022-08-20T02:27:31.743Z,21.54
2022-08-20T02:32:34.194Z,22.09
2022-08-20T02:37:31.860Z,22.27
2022-08-20T02:42:31.711Z,22.04
2022-08-20T02:47:31.454Z,21.46
2022-08-20T02:52:31.393Z,21.75
2022-08-20T02:57:31.330Z,21.99
2022-08-20T03:02:31.255Z,22.22
2022-08-20T03:07:31.185Z,21.61
2022-08-20T03:12:31.126Z,21.39
2022-08-20T03:17:31.057Z,21.54
2022-08-20T03:22:31.006Z,21.48
2022-08-20T03:27:32.732Z,21.98
2022-08-20T03:32:31.879Z,21.83
2022-08-20T03:37:30.799Z,21.14
2022-08-20T03:42:30.729Z,21.08
2022-08-20T03:47:30.670Z,21.38
2022-08-20T03:52:30.600Z,21.56
2022-08-20T03:57:30.553Z,21.57
2022-08-20T04:02:30.492Z,21.35
2022-08-20T04:07:30.413Z,21.66
2022-08-20T04:12:30.354Z,21.76
2022-08-20T04:17:30.283Z,21.94
2022-08-20T04:22:30.204Z,21.66
2022-08-20T04:27:30.144Z,22.20
2022-08-20T04:32:30.086Z,21.99
2022-08-20T04:37:30.009Z,22.04
2022-08-20T04:42:29.947Z,21.72
2022-08-20T04:47:34.841Z,22.02
2022-08-20T04:52:30.807Z,22.13
2022-08-20T04:57:29.744Z,22.39
2022-08-20T05:02:29.668Z,22.16
2022-08-20T05:07:29.609Z,22.20
2022-08-20T05:12:29.550Z,22.04
2022-08-20T05:17:29.485Z,22.07
2022-08-20T05:22:31.014Z,21.94
2022-08-20T05:27:29.370Z,21.98
2022-08-20T05:32:29.282Z,21.99
2022-08-20T05:37:29.223Z,21.56
2022-08-20T05:42:29.180Z,22.06
2022-08-20T05:47:29.343Z,21.79
2022-08-20T05:52:30.028Z,21.88
2022-08-20T05:57:28.954Z,21.97
2022-08-20T06:02:28.918Z,21.61
2022-08-20T06:07:28.869Z,21.59
2022-08-20T06:12:28.766Z,21.46
2022-08-20T06:17:28.696Z,21.51
2022-08-20T06:22:29.626Z,22.23
2022-08-20T06:27:28.570Z,22.39
2022-08-20T06:32:32.138Z,22.10
2022-08-20T06:37:31.391Z,21.61
2022-08-20T06:42:28.389Z,21.66
2022-08-20T06:47:28.297Z,21.27
2022-08-20T06:52:52.108Z,21.16
2022-08-20T06:57:29.161Z,21.20
2022-08-20T07:02:30.168Z,21.01
2022-08-20T07:07:28.353Z,21.09
2022-08-20T07:12:27.992Z,21.44
2022-08-20T07:17:27.930Z,21.57
2022-08-20T07:22:27.854Z,21.20
2022-08-20T07:27:27.815Z,20.77
2022-08-20T07:32:28.985Z,21.24
2022-08-20T07:37:27.656Z,21.50
2022-08-20T07:42:27.567Z,21.99
2022-08-20T07:47:27.516Z,21.41
2022-08-20T07:52:27.457Z,20.87
2022-08-20T07:57:27.408Z,21.53
2022-08-20T08:02:27.311Z,21.71
2022-08-20T08:07:27.290Z,21.98
2022-08-20T08:12:27.201Z,21.83
2022-08-20T08:17:27.145Z,21.63
2022-08-20T08:22:27.082Z,21.85
2022-08-20T08:27:27.104Z,22.14
2022-08-20T08:32:26.948Z,21.82
2022-08-20T08:37:30.494Z,21.98
2022-08-20T08:42:26.825Z,21.95
2022-08-20T08:47:26.880Z,21.85
2022-08-20T08:52:26.695Z,22.17
2022-08-20T08:57:26.635Z,22.25
2022-08-20T09:02:26.813Z,22.43
2022-08-20T09:07:33.600Z,22.20
2022-08-20T09:12:26.417Z,22.13
2022-08-20T09:17:26.348Z,22.32
2022-08-20T09:22:26.359Z,21.92
2022-08-20T09:27:26.211Z,22.12
2022-08-20T09:32:26.303Z,22.16
2022-08-20T09:37:26.073Z,22.07
2022-08-20T09:42:26.003Z,21.54
2022-08-20T09:47:25.960Z,21.98
2022-08-20T09:52:25.903Z,22.25
2022-08-20T09:57:25.939Z,22.17
2022-08-20T10:02:25.798Z,22.20
2022-08-20T10:07:25.785Z,22.16
2022-08-20T10:12:25.664Z,22.31
2022-08-20T10:17:25.553Z,22.04
2022-08-20T10:22:25.534Z,22.10
2022-08-20T10:27:25.424Z,22.39
2022-08-20T10:32:25.366Z,22.19
2022-08-20T10:37:25.294Z,21.99
2022-08-20T10:42:25.260Z,22.06
2022-08-20T10:47:25.208Z,22.44
2022-08-20T10:52:25.189Z,22.69
2022-08-20T10:57:25.349Z,22.43
2022-08-20T11:02:25.003Z,22.39
2022-08-20T11:07:49.523Z,22.49
2022-08-20T11:12:26.073Z,22.22
2022-08-20T11:17:24.784Z,22.17
2022-08-20T11:22:24.763Z,22.41
2022-08-20T11:27:24.642Z,22.49
2022-08-20T11:32:24.576Z,22.14
2022-08-20T11:37:24.498Z,22.35
2022-08-20T11:42:24.415Z,22.04
2022-08-20T11:47:24.365Z,22.35
2022-08-20T11:52:24.302Z,22.17
2022-08-20T11:57:24.247Z,22.37
2022-08-20T12:02:24.257Z,22.43
2022-08-20T12:07:24.109Z,22.29
2022-08-20T12:12:24.112Z,22.41
2022-08-20T12:17:24.023Z,22.60
2022-08-20T12:22:24.744Z,22.82
2022-08-20T12:27:23.870Z,22.69
2022-08-20T12:32:23.811Z,22.72
2022-08-20T12:37:23.762Z,22.93
2022-08-20T12:42:23.680Z,22.74
2022-08-20T12:47:23.611Z,22.77
2022-08-20T12:52:23.546Z,22.60
2022-08-20T12:57:23.508Z,22.80
2022-08-20T13:02:23.408Z,22.80
2022-08-20T13:07:23.398Z,22.67
2022-08-20T13:12:23.287Z,22.29
2022-08-20T13:17:38.829Z,22.20
2022-08-20T13:22:24.442Z,22.14
2022-08-20T13:27:23.192Z,22.01
2022-08-20T13:32:23.187Z,22.16
2022-08-20T13:37:25.348Z,22.49
2022-08-20T13:42:22.900Z,22.17
2022-08-20T13:47:22.842Z,22.13
2022-08-20T13:52:22.770Z,22.28
2022-08-20T13:57:22.772Z,22.27
2022-08-20T14:02:22.683Z,21.67
2022-08-20T14:07:22.692Z,22.41
2022-08-20T14:12:22.535Z,21.35
2022-08-20T14:17:22.494Z,21.81
2022-08-20T14:22:22.476Z,21.67
2022-08-20T14:27:23.735Z,21.57
2022-08-20T14:32:22.356Z,21.29
2022-08-20T14:37:22.212Z,21.85
2022-08-20T14:42:22.134Z,21.71
2022-08-20T14:47:22.085Z,20.50
2022-08-20T14:52:21.988Z,21.23
2022-08-20T14:57:21.942Z,21.42
2022-08-20T15:02:21.880Z,20.76
2022-08-20T15:07:21.924Z,20.42
2022-08-20T15:12:21.801Z,20.81
2022-08-20T15:17:21.697Z,20.91
2022-08-20T15:22:21.719Z,20.69
2022-08-20T15:27:22.759Z,20.51
2022-08-20T15:32:21.674Z,20.71
2022-08-20T15:37:21.404Z,20.41
2022-08-20T15:42:21.352Z,21.01
2022-08-20T15:47:21.313Z,20.87
2022-08-20T15:52:21.238Z,21.06
2022-08-20T15:57:21.210Z,21.30
2022-08-20T16:02:25.558Z,21.42
2022-08-20T16:07:21.019Z,21.60
2022-08-20T16:12:20.958Z,21.99
2022-08-20T16:17:20.891Z,22.35
2022-08-20T16:22:20.828Z,22.49
2022-08-20T16:27:20.751Z,22.57
2022-08-20T16:32:20.698Z,22.72
2022-08-20T16:37:20.891Z,22.89
2022-08-20T16:42:20.560Z,22.44
2022-08-20T16:47:20.501Z,21.72
2022-08-20T16:52:20.451Z,22.12
2022-08-20T16:57:20.372Z,22.10
2022-08-20T17:02:20.302Z,21.46
2022-08-20T17:07:20.260Z,21.92
2022-08-20T17:12:20.174Z,21.71
2022-08-20T17:17:20.104Z,21.98
2022-08-20T17:22:20.035Z,21.95
2022-08-20T17:27:19.994Z,22.12
2022-08-20T17:32:19.917Z,21.74
2022-08-20T17:37:19.864Z,21.61
2022-08-20T17:42:20.028Z,21.48
2022-08-20T17:47:19.718Z,20.93
2022-08-20T17:52:19.676Z,21.02
2022-08-20T17:57:19.577Z,21.13
2022-08-20T18:02:19.611Z,20.61
2022-08-20T18:07:19.443Z,20.35
2022-08-20T18:12:27.936Z,20.21
2022-08-20T18:17:20.336Z,20.58
2022-08-20T18:22:19.293Z,20.56
2022-08-20T18:27:19.197Z,20.20
2022-08-20T18:32:19.120Z,19.97
2022-08-20T18:37:19.135Z,19.84
2022-08-20T18:42:19.055Z,20.16
2022-08-20T18:47:19.037Z,19.98
2022-08-20T18:52:18.865Z,19.72
2022-08-20T18:57:18.835Z,20.41
2022-08-20T19:02:18.786Z,20.00
2022-08-20T19:07:18.708Z,20.02
2022-08-20T19:12:18.621Z,19.68
2022-08-20T19:17:18.640Z,19.50
2022-08-20T19:22:18.470Z,19.54
2022-08-20T19:27:18.425Z,19.86
2022-08-20T19:32:18.330Z,19.97
2022-08-20T19:37:35.799Z,20.02
2022-08-20T19:42:19.308Z,19.51
2022-08-20T19:47:20.209Z,19.23
2022-08-20T19:52:18.190Z,19.17
2022-08-20T19:57:18.003Z,19.29
2022-08-20T20:02:21.115Z,19.29
2022-08-20T20:07:17.883Z,19.53
2022-08-20T20:12:22.943Z,19.76
2022-08-20T20:17:22.914Z,19.60
2022-08-20T20:22:20.208Z,19.53
2022-08-20T20:27:20.853Z,19.76
2022-08-20T20:32:17.596Z,20.21
2022-08-20T20:37:17.493Z,19.72
2022-08-20T20:42:18.444Z,19.51
2022-08-20T20:47:17.346Z,19.46
2022-08-20T20:52:17.286Z,19.53
2022-08-20T20:57:17.245Z,19.84
2022-08-20T21:02:17.224Z,19.95
2022-08-20T21:07:17.087Z,20.05
2022-08-20T21:12:17.019Z,20.27
2022-08-20T21:17:16.959Z,20.80
2022-08-20T21:22:16.908Z,20.54
2022-08-20T21:27:16.828Z,19.98
2022-08-20T21:32:16.765Z,20.65
2022-08-20T21:37:16.710Z,20.91
2022-08-20T21:42:21.646Z,21.44
2022-08-20T21:47:17.563Z,21.41
2022-08-20T21:52:16.513Z,21.36
2022-08-20T21:57:16.433Z,20.86
2022-08-20T22:02:16.363Z,20.79
2022-08-20T22:07:16.320Z,20.81
2022-08-20T22:12:16.428Z,21.30
2022-08-20T22:17:16.166Z,21.09
2022-08-20T22:22:16.098Z,20.99
2022-08-20T22:27:16.066Z,20.83
2022-08-20T22:32:15.974Z,20.77
2022-08-20T22:37:15.911Z,20.93
2022-08-20T22:42:15.854Z,20.51
2022-08-20T22:47:15.785Z,20.28
2022-08-20T22:52:15.719Z,20.34
2022-08-20T22:57:15.693Z,20.43
2022-08-20T23:02:15.748Z,20.79
2022-08-20T23:07:15.513Z,20.58
2022-08-20T23:12:15.451Z,20.46
2022-08-20T23:17:15.391Z,20.08
2022-08-20T23:22:15.339Z,20.06
2022-08-20T23:27:15.314Z,20.06
2022-08-20T23:32:15.239Z,20.49
2022-08-20T23:37:15.130Z,20.46
2022-08-20T23:42:15.065Z,20.00
2022-08-20T23:47:14.994Z,19.68
2022-08-20T23:52:14.953Z,19.40
2022-08-20T23:57:14.898Z,20.99
